Flight Track Log - Related Links

Times and Time Zones

All times are in EST time to prevent confusion due to time zone crossing. See the N137TK flight status page for this flight to view local times or setup timezone preferences in your user account.

Time Position Orientation Groundspeed Altitude Reporting Facility
EST Latitude Longitude Course Direction KTS MPH feet Rate Location/Type
Fri 07:50:12 AM 26.2611 -81.8300 355° North 176 203 6,000  Level Miami Center
Fri 07:51:12 AM 26.3089 -81.8322 358° North 171 197 7,800 2,100 Climbing Miami Center
Fri 07:52:12 AM 26.3633 -81.8319 360° North 176 203 10,200 2,150 Climbing Miami Center
Fri 07:53:00 AM 26.4872 -81.8009 354° North  Level Estimated
Fri 07:53:12 AM 26.4156 -81.8319 360° North 176 203 12,100  Level Miami Center
Fri 07:54:00 AM 26.5540 -81.8080 355° North  Level FlightAware Approximate
Fri 07:54:12 AM 26.4656 -81.8364 355° North 176 203 14,000  Level Miami Center
Fri 07:55:12 AM 26.5111 -81.8431 353° North 176 203 15,400 1,500 Climbing Miami Center
Fri 07:56:12 AM 26.5611 -81.8450 358° North 176 203 17,000 1,350 Climbing Miami Center
Fri 07:57:12 AM 26.6153 -81.8497 356° North 181 208 18,100 1,350 Climbing Miami Center
Fri 07:58:12 AM 26.6694 -81.8542 356° North 181 208 19,700 1,500 Climbing Miami Center
Fri 07:59:12 AM 26.7194 -81.8542 360° North 181 208 21,100 1,300 Climbing Miami Center
Fri 08:00:12 AM 26.7653 -81.8583 355° North 176 203 22,300 1,050 Climbing Miami Center
Fri 08:01:12 AM 26.8172 -81.8631 355° North 176 203 23,200 1,000 Climbing Miami Center
Fri 08:02:12 AM 26.8692 -81.8697 353° North 176 203 24,300 900 Climbing Miami Center
Fri 08:03:12 AM 26.9236 -81.8697 360° North 176 203 25,000 350 Climbing Miami Center
Fri 08:04:12 AM 26.9881 -81.8750 356° North 199 229 25,000  Level Miami Center
Fri 08:05:12 AM 27.0650 -81.8806 356° North 243 280 25,000  Level Miami Center
Fri 08:06:12 AM 27.1400 -81.8861 356° North 262 302 25,000  Level Miami Center
Fri 08:07:12 AM 27.2150 -81.8917 356° North 262 302 25,000  Level Miami Center
Fri 08:08:12 AM 27.2814 -81.8994 354° North 270 311 25,000  Level Miami Center
Fri 08:09:12 AM 27.3606 -81.9097 353° North 275 316 25,000  Level Miami Center
Fri 08:10:12 AM 27.4453 -81.8714 22° Northeast 282 325 25,000  Level Miami Center
Fri 08:11:12 AM 27.5239 -81.8328 24° Northeast 298 343 25,000  Level Miami Center
Fri 08:12:12 AM 27.6044 -81.7964 22° Northeast 304 350 25,000  Level Miami Center
Fri 08:13:12 AM 27.6764 -81.7619 23° Northeast 304 350 25,000  Level Miami Center
Fri 08:14:12 AM 27.7572 -81.7233 23° Northeast 304 350 25,000  Level Miami Center
Fri 08:15:12 AM 27.8358 -81.6819 25° Northeast 304 350 25,000  Level Miami Center
Fri 08:16:12 AM 27.9183 -81.6433 22° Northeast 304 350 25,000  Level Miami Center
Fri 08:17:12 AM 27.9969 -81.6019 25° Northeast 304 350 25,000  Level Miami Center
Fri 08:18:12 AM 28.0775 -81.5628 23° Northeast 304 350 25,000  Level Miami Center
Fri 08:20:17 AM 28.2486 -81.4811 23° Northeast 339 390 25,000  Level Jacksonville Center
Fri 08:21:17 AM 28.3378 -81.4375 23° Northeast 328 377 25,000  Level Jacksonville Center
Fri 08:22:17 AM 28.4189 -81.3986 23° Northeast 315 362 25,000  Level Jacksonville Center
Fri 08:23:17 AM 28.5000 -81.3736 15° North 305 351 25,000  Level Jacksonville Center
Fri 08:24:17 AM 28.5811 -81.3536 12° North 299 344 25,000  Level Jacksonville Center
Fri 08:25:17 AM 28.6456 -81.3383 12° North 294 338 25,000  Level Jacksonville Center
Fri 08:26:17 AM 28.7311 -81.3394 359° North 286 329 25,000  Level Jacksonville Center
Fri 08:27:17 AM 28.8044 -81.3525 351° North 270 311 25,000  Level Jacksonville Center
Fri 08:28:17 AM 28.8797 -81.3631 353° North 270 311 25,000  Level Jacksonville Center
Fri 08:29:17 AM 28.9547 -81.3739 353° North 275 316 25,000  Level Jacksonville Center
Fri 08:30:17 AM 29.0281 -81.3800 356° North 275 316 25,000  Level Jacksonville Center
Fri 08:31:17 AM 29.1011 -81.3956 349° North 275 316 25,000  Level Jacksonville Center
Fri 08:32:17 AM 29.1722 -81.4039 354° North 270 311 25,000  Level Jacksonville Center
Fri 08:33:17 AM 29.2433 -81.4169 351° North 264 304 25,000  Level Jacksonville Center
Fri 08:34:17 AM 29.3208 -81.4325 350° North 251 289 25,000  Level Jacksonville Center
Fri 08:35:17 AM 29.3858 -81.4578 341° North 246 283 25,000  Level Jacksonville Center
Fri 08:36:17 AM 29.4383 -81.4906 331° Northwest 231 266 25,000  Level Jacksonville Center
Fri 08:37:17 AM 29.4950 -81.5253 332° Northwest 226 260 25,000  Level Jacksonville Center
Fri 08:38:17 AM 29.5619 -81.5411 348° North 226 260 25,000  Level Jacksonville Center
Fri 08:39:17 AM 29.6331 -81.5544 351° North 241 277 25,000  Level Jacksonville Center
Fri 08:40:18 AM 29.7022 -81.5631 354° North 246 283 25,000  Level Jacksonville Center
Fri 08:41:18 AM 29.7711 -81.5742 352° North 246 283 25,000  Level Jacksonville Center
Fri 08:42:17 AM 29.8403 -81.5853 352° North 251 289 25,000  Level Jacksonville Center
Fri 08:43:17 AM 29.9092 -81.5961 352° North 251 289 25,000  Level Jacksonville Center
Fri 08:44:17 AM 29.9761 -81.6072 352° North 251 289 25,000  Level Jacksonville Center
Fri 08:45:17 AM 30.0450 -81.6183 352° North 251 289 25,000  Level Jacksonville Center
Fri 08:46:17 AM 30.1119 -81.6272 353° North 251 289 25,000  Level Jacksonville Center
Fri 08:47:17 AM 30.1811 -81.6406 351° North 246 283 25,000  Level Jacksonville Center
Fri 08:48:17 AM 30.2500 -81.6517 352° North 246 283 25,000  Level Jacksonville Center
Fri 08:49:17 AM 30.3169 -81.6606 353° North 246 283 25,000  Level Jacksonville Center
Fri 08:50:17 AM 30.3858 -81.6717 352° North 246 283 25,000  Level Jacksonville Center
Fri 08:51:17 AM 30.4550 -81.6828 352° North 246 283 25,000  Level Jacksonville Center
Fri 08:52:17 AM 30.5239 -81.6942 352° North 246 283 25,000  Level Jacksonville Center
Fri 08:53:17 AM 30.5908 -81.7053 352° North 241 277 25,000  Level Jacksonville Center
Fri 08:54:17 AM 30.6578 -81.7189 350° North 241 277 25,000  Level Jacksonville Center
Fri 08:55:17 AM 30.7289 -81.7278 354° North 241 277 25,000  Level Jacksonville Center
Fri 08:56:17 AM 30.7958 -81.7414 350° North 241 277 25,000  Level Jacksonville Center
Fri 08:57:17 AM 30.8586 -81.7528 351° North 249 287 25,000  Level Jacksonville Center
Fri 08:58:18 AM 30.9297 -81.7617 354° North 254 292 25,000  Level Jacksonville Center
Fri 08:59:17 AM 31.0008 -81.7753 351° North 254 292 25,000  Level Jacksonville Center
Fri 09:00:17 AM 31.0697 -81.7867 352° North 254 292 25,000  Level Jacksonville Center
Fri 09:01:18 AM 31.1386 -81.7978 352° North 254 292 25,000  Level Jacksonville Center
Fri 09:02:17 AM 31.2078 -81.8092 352° North 254 292 25,000  Level Jacksonville Center
Fri 09:03:17 AM 31.2747 -81.8206 352° North 254 292 25,000  Level Jacksonville Center
Fri 09:04:18 AM 31.3458 -81.8319 352° North 254 292 25,000  Level Jacksonville Center
Fri 09:05:18 AM 31.4147 -81.8433 352° North 254 292 25,000  Level Jacksonville Center
Fri 09:06:17 AM 31.4922 -81.8572 351° North 254 292 25,000  Level Jacksonville Center
Fri 09:07:17 AM 31.5569 -81.8661 353° North 254 292 25,000  Level Jacksonville Center
Fri 09:08:17 AM 31.6342 -81.8800 351° North 254 292 25,000  Level Jacksonville Center
Fri 09:09:17 AM 31.7053 -81.8914 352° North 254 292 25,000  Level Jacksonville Center
Fri 09:10:18 AM 31.7703 -81.9006 353° North 259 298 25,000  Level Jacksonville Center
Fri 09:11:17 AM 31.8475 -81.9142 351° North 259 298 25,000  Level Jacksonville Center
Fri 09:12:17 AM 31.9164 -81.9258 352° North 254 292 25,000  Level Jacksonville Center
Fri 09:13:17 AM 31.9772 -81.9375 351° North 254 292 25,000  Level Jacksonville Center
Fri 09:15:30 AM 32.1403 -81.9661 352° North 255 293 25,000  Level Atlanta Center
Fri 09:16:30 AM 32.2053 -81.9744 354° North 255 293 25,000  Level Atlanta Center
Fri 09:17:30 AM 32.2742 -81.9875 351° North 255 293 25,000  Level Atlanta Center
Fri 09:18:30 AM 32.3475 -82.0006 351° North 255 293 25,000  Level Atlanta Center
Fri 09:19:30 AM 32.4167 -82.0139 351° North 255 293 25,000  Level Atlanta Center
Fri 09:20:30 AM 32.4856 -82.0222 354° North 255 293 25,000 -100 Level Atlanta Center
Fri 09:21:30 AM 32.5528 -82.0353 351° North 255 293 24,800 -400 Descending Atlanta Center
Fri 09:22:30 AM 32.6239 -82.0461 353° North 255 293 24,200 -550 Descending Atlanta Center
Fri 09:23:30 AM 32.6992 -82.0617 350° North 261 300 23,700 -450 Descending Atlanta Center
Fri 09:24:30 AM 32.7725 -82.0725 353° North 261 300 23,300 -450 Descending Atlanta Center
Fri 09:25:30 AM 32.8414 -82.0831 353° North 256 295 22,800 -550 Descending Atlanta Center
Fri 09:26:30 AM 32.9128 -82.0989 349° North 256 295 22,200 -400 Descending Atlanta Center
Fri 09:27:30 AM 32.9797 -82.1097 352° North 256 295 22,000 -100 Descending Atlanta Center
Fri 09:28:30 AM 33.0508 -82.1231 351° North 256 295 22,000  Level Atlanta Center
Fri 09:29:30 AM 33.1114 -82.1317 353° North 244 281 22,000  Level Atlanta Center
Fri 09:30:30 AM 33.1700 -82.1378 355° North 229 264 22,000  Level Atlanta Center
Fri 09:31:30 AM 33.2392 -82.1536 349° North 229 264 22,000  Level Atlanta Center
Fri 09:32:30 AM 33.3019 -82.1647 352° North 229 264 22,000  Level Atlanta Center
Fri 09:33:30 AM 33.3647 -82.1733 353° North 229 264 22,000  Level Atlanta Center
Fri 09:34:30 AM 33.4297 -82.1869 350° North 229 264 22,000  Level Atlanta Center
Fri 09:35:30 AM 33.4967 -82.2003 351° North 229 264 22,000  Level Atlanta Center
Fri 09:36:30 AM 33.5658 -82.2164 349° North 236 272 22,000  Level Atlanta Center
Fri 09:37:30 AM 33.6200 -82.2203 357° North 230 265 22,000  Level Atlanta Center
Fri 09:38:30 AM 33.6975 -82.2336 352° North 241 277 22,000  Level Atlanta Center
Fri 09:39:30 AM 33.7644 -82.2447 352° North 241 277 22,000  Level Atlanta Center
Fri 09:40:30 AM 33.8333 -82.2558 352° North 250 288 22,000  Level Atlanta Center
Fri 09:41:30 AM 33.9108 -82.2742 349° North 264 304 22,000 -300 Level Atlanta Center
Fri 09:42:30 AM 33.9778 -82.2828 354° North 254 292 21,400 -750 Descending Atlanta Center
Fri 09:43:30 AM 34.0531 -82.2936 353° North 260 299 20,500 -850 Descending Atlanta Center
Fri 09:44:30 AM 34.1306 -82.3122 349° North 276 318 19,700 -900 Descending Atlanta Center
Fri 09:45:30 AM 34.2081 -82.3283 350° North 276 318 18,700 -700 Descending Atlanta Center
Fri 09:46:30 AM 34.2814 -82.3392 353° North 276 318 18,300 -700 Descending Atlanta Center
Fri 09:47:30 AM 34.3525 -82.3506 352° North 271 312 17,300 -1,000 Descending Atlanta Center
Fri 09:48:30 AM 34.4236 -82.3642 351° North 261 300 16,300 -1,000 Descending Atlanta Center
Fri 09:49:30 AM 34.4925 -82.3753 352° North 256 295 15,300 -1,000 Descending Atlanta Center
Fri 09:50:30 AM 34.5617 -82.3867 352° North 256 295 14,300 -950 Descending Atlanta Center
Fri 09:51:30 AM 34.6306 -82.4031 349° North 256 295 13,400 -900 Descending Atlanta Center
Fri 09:52:30 AM 34.6956 -82.4092 356° North 246 283 12,500 -900 Descending Atlanta Center
Fri 09:53:30 AM 34.7625 -82.4231 350° North 246 283 11,600 -900 Descending Atlanta Center
Fri 09:54:30 AM 34.8253 -82.4344 352° North 241 277 10,700 -900 Descending Atlanta Center
Fri 09:55:30 AM 34.8881 -82.4461 351° North 236 272 9,800 -850 Descending Atlanta Center
Fri 09:56:30 AM 34.9506 -82.4575 352° North 236 272 9,000 -800 Descending Atlanta Center
Fri 09:57:30 AM 35.0133 -82.4689 352° North 231 266 8,200 -800 Descending Atlanta Center
Fri 09:59:00 AM 35.1170 -82.4834 355° North  Level FlightAware Approximate
Fri 10:06:00 AM 35.4333 -82.5333 348° North  Level FlightAware Approximate
Fri 10:07:00 AM 35.4362 -82.5418 348° North  Level Estimated
Fri 10:08:00 AM 35.4362 -82.5418 348° North  Level Estimated
Fri 10:09:00 AM 35.4362 -82.5418 348° North  Level Estimated
Fri 10:10:00 AM 35.4362 -82.5418 348° North  Level Estimated
Fri 10:11:00 AM 35.4362 -82.5418 348° North  Level Estimated
Fri 10:12:00 AM 35.4362 -82.5418 348° North  Level Estimated
Fri 10:13:00 AM 35.4362 -82.5418 348° North  Level Estimated
Fri 10:14:00 AM 35.4362 -82.5418 348° North  Level Estimated

Login

Don't have an account? Register now (free) for customized features, flight alerts, and more!